createdAt,value
2023-04-16T00:00:39.755Z,22.65
2023-04-16T00:03:07.696Z,19.35
2023-04-16T00:05:35.763Z,30.98
2023-04-16T00:08:03.658Z,18.88
2023-04-16T00:10:31.622Z,27.40
2023-04-16T00:12:59.387Z,17.13
2023-04-16T00:15:27.232Z,20.50
2023-04-16T00:17:55.005Z,21.63
2023-04-16T00:20:22.780Z,22.50
2023-04-16T00:22:51.492Z,15.55
2023-04-16T00:25:19.222Z,16.17
2023-04-16T00:27:46.997Z,19.98
2023-04-16T00:30:15.101Z,17.60
2023-04-16T00:32:43.830Z,17.75
2023-04-16T00:35:11.685Z,16.73
2023-04-16T00:37:39.594Z,15.48
2023-04-16T00:40:08.082Z,16.33
2023-04-16T00:42:37.193Z,15.00
2023-04-16T00:45:06.009Z,18.95
2023-04-16T00:47:34.279Z,19.40
2023-04-16T00:50:04.470Z,12.57
2023-04-16T00:52:33.389Z,24.67
2023-04-16T00:55:01.559Z,20.75
2023-04-16T00:57:30.956Z,18.70
2023-04-16T00:59:59.208Z,24.42
2023-04-16T01:02:27.456Z,18.98
2023-04-16T01:04:55.889Z,17.70
2023-04-16T01:07:23.678Z,34.83
2023-04-16T01:09:51.445Z,18.38
2023-04-16T01:12:20.294Z,18.63
2023-04-16T01:14:48.094Z,19.42
2023-04-16T01:17:16.104Z,22.60
2023-04-16T01:19:43.831Z,25.10
2023-04-16T01:22:14.565Z,25.23
2023-04-16T01:24:42.430Z,23.65
2023-04-16T01:27:11.685Z,18.63
2023-04-16T01:29:39.399Z,27.17
2023-04-16T01:32:07.414Z,28.95
2023-04-16T01:34:37.690Z,20.13
2023-04-16T01:37:05.605Z,20.17
2023-04-16T01:39:33.322Z,23.02
2023-04-16T01:42:01.529Z,19.70
2023-04-16T01:44:30.991Z,16.30
2023-04-16T01:46:58.940Z,20.13
2023-04-16T01:49:26.807Z,18.00
2023-04-16T01:51:54.488Z,11.93
2023-04-16T01:54:22.227Z,8.18
2023-04-16T01:56:50.052Z,15.90
2023-04-16T01:59:21.371Z,21.17
2023-04-16T02:01:51.962Z,16.33
2023-04-16T02:04:19.781Z,19.10
2023-04-16T02:06:47.531Z,17.20
2023-04-16T02:09:15.740Z,16.38
2023-04-16T02:11:43.995Z,19.50
2023-04-16T02:14:11.826Z,19.77
2023-04-16T02:16:39.625Z,11.82
2023-04-16T02:19:16.976Z,23.25
2023-04-16T02:21:44.813Z,17.02
2023-04-16T02:24:12.593Z,20.48
2023-04-16T02:26:42.894Z,19.00
2023-04-16T02:29:16.645Z,14.23
2023-04-16T02:31:50.640Z,17.33
2023-04-16T02:34:19.351Z,23.70
2023-04-16T02:36:47.060Z,21.88
2023-04-16T02:39:14.766Z,11.95
2023-04-16T02:41:42.540Z,14.75
2023-04-16T02:44:10.384Z,12.63
2023-04-16T02:46:38.023Z,18.65
2023-04-16T02:49:05.819Z,18.70
2023-04-16T02:51:33.585Z,23.45
2023-04-16T02:54:01.311Z,21.23
2023-04-16T02:56:29.377Z,19.67
2023-04-16T02:58:57.106Z,22.00
2023-04-16T03:01:25.261Z,21.48
2023-04-16T03:03:53.214Z,18.05
2023-04-16T03:06:21.222Z,15.43
2023-04-16T03:08:49.005Z,16.13
2023-04-16T03:11:17.098Z,26.52
2023-04-16T03:13:47.952Z,23.17
2023-04-16T03:16:15.780Z,23.73
2023-04-16T03:18:43.686Z,18.92
2023-04-16T03:21:14.286Z,13.98
2023-04-16T03:23:42.253Z,18.30
2023-04-16T03:26:09.962Z,24.55
2023-04-16T03:28:37.699Z,22.90
2023-04-16T03:31:35.684Z,23.05
2023-04-16T03:34:03.596Z,26.90
2023-04-16T03:36:48.537Z,23.00
2023-04-16T03:39:16.535Z,17.88
2023-04-16T03:41:44.270Z,24.23
2023-04-16T03:44:12.183Z,27.60
2023-04-16T03:46:40.153Z,21.48
2023-04-16T03:49:08.896Z,17.50
2023-04-16T03:51:36.804Z,17.95
2023-04-16T03:54:04.963Z,22.60
2023-04-16T03:56:33.558Z,21.65
2023-04-16T03:59:01.748Z,17.77
2023-04-16T04:01:30.695Z,17.73
2023-04-16T04:03:59.028Z,30.30
2023-04-16T04:06:27.592Z,19.95
2023-04-16T04:08:55.472Z,13.40
2023-04-16T04:11:23.247Z,25.30
2023-04-16T04:13:51.395Z,19.15
2023-04-16T04:16:22.262Z,19.73
2023-04-16T04:18:50.294Z,24.77
2023-04-16T04:21:22.292Z,14.40
2023-04-16T04:23:53.914Z,13.40
2023-04-16T04:26:22.299Z,17.40
2023-04-16T04:28:50.103Z,15.52
2023-04-16T04:31:19.145Z,24.08
2023-04-16T04:33:48.024Z,16.23
2023-04-16T04:36:18.545Z,18.48
2023-04-16T04:38:49.193Z,16.05
2023-04-16T04:41:17.273Z,12.43
2023-04-16T04:43:47.709Z,26.55
2023-04-16T04:46:15.921Z,14.35
2023-04-16T04:48:43.686Z,15.65
2023-04-16T04:51:11.786Z,20.05
2023-04-16T04:53:39.583Z,19.63
2023-04-16T04:56:12.122Z,13.40
2023-04-16T04:58:44.359Z,13.73
2023-04-16T05:01:12.990Z,16.13
2023-04-16T05:03:40.941Z,10.32
2023-04-16T05:06:08.873Z,17.63
2023-04-16T05:08:36.717Z,11.95
2023-04-16T05:11:04.669Z,15.35
2023-04-16T05:13:32.487Z,11.45
2023-04-16T05:16:00.445Z,8.88
2023-04-16T05:18:28.299Z,14.73
2023-04-16T05:20:56.244Z,18.33
2023-04-16T05:23:24.021Z,15.98
2023-04-16T05:25:51.901Z,11.50
2023-04-16T05:28:19.815Z,15.68
2023-04-16T05:30:47.662Z,14.68
2023-04-16T05:33:15.543Z,10.73
2023-04-16T05:35:43.312Z,17.15
2023-04-16T05:38:13.059Z,19.38
2023-04-16T05:40:40.796Z,14.27
2023-04-16T05:43:08.533Z,11.13
2023-04-16T05:45:41.125Z,13.10
2023-04-16T05:48:09.523Z,7.32
2023-04-16T05:50:37.780Z,20.23
2023-04-16T05:53:09.504Z,20.92
2023-04-16T05:55:37.376Z,12.57
2023-04-16T05:58:07.166Z,16.52
2023-04-16T06:00:35.136Z,33.28
2023-04-16T06:03:03.868Z,13.25
2023-04-16T06:05:31.965Z,11.27
2023-04-16T06:07:59.777Z,13.57
2023-04-16T06:10:28.252Z,10.07
2023-04-16T06:12:56.385Z,9.25
2023-04-16T06:15:27.140Z,18.15
2023-04-16T06:18:00.681Z,9.18
2023-04-16T06:20:28.851Z,13.52
2023-04-16T06:22:59.539Z,13.50
2023-04-16T06:25:27.311Z,13.50
2023-04-16T06:27:55.155Z,11.50
2023-04-16T06:30:22.866Z,6.93
2023-04-16T06:32:50.772Z,7.15
2023-04-16T06:35:20.370Z,6.22
2023-04-16T06:37:48.297Z,6.15
2023-04-16T06:40:16.129Z,6.10
2023-04-16T06:42:46.546Z,16.83
2023-04-16T06:45:14.378Z,16.25
2023-04-16T06:47:42.221Z,5.63
2023-04-16T06:50:10.463Z,12.35
2023-04-16T06:52:40.747Z,10.30
2023-04-16T06:55:09.928Z,7.72
2023-04-16T06:57:37.919Z,13.50
2023-04-16T07:00:06.350Z,8.20
2023-04-16T07:02:34.387Z,10.90
2023-04-16T07:05:02.278Z,21.52
2023-04-16T07:07:31.497Z,16.33
2023-04-16T07:09:59.965Z,9.02
2023-04-16T07:12:27.778Z,5.28
2023-04-16T07:14:55.946Z,10.98
2023-04-16T07:17:23.724Z,6.95
2023-04-16T07:19:52.148Z,9.10
2023-04-16T07:22:20.484Z,13.70
2023-04-16T07:24:48.219Z,10.18
2023-04-16T07:27:16.955Z,5.72
2023-04-16T07:29:46.070Z,7.30
2023-04-16T07:32:15.477Z,6.10
2023-04-16T07:34:43.729Z,3.58
2023-04-16T07:37:11.516Z,13.27
2023-04-16T07:39:39.396Z,6.68
2023-04-16T07:42:07.263Z,22.30
2023-04-16T07:44:35.009Z,5.07
2023-04-16T07:47:04.842Z,4.63
2023-04-16T07:49:54.758Z,9.00
2023-04-16T07:52:22.562Z,7.30
2023-04-16T07:54:51.774Z,9.57
2023-04-16T07:57:19.862Z,3.25
2023-04-16T07:59:47.594Z,12.35
2023-04-16T08:02:16.715Z,8.77
2023-04-16T08:04:45.089Z,7.07
2023-04-16T08:07:13.148Z,4.90
2023-04-16T08:09:51.745Z,6.03
2023-04-16T08:12:21.025Z,11.32
2023-04-16T08:14:49.098Z,7.72
2023-04-16T08:17:16.841Z,11.25
2023-04-16T08:19:45.429Z,5.97
2023-04-16T08:22:13.758Z,9.07
2023-04-16T08:24:41.858Z,7.63
2023-04-16T08:27:19.380Z,6.20
2023-04-16T08:29:48.536Z,6.72
2023-04-16T08:32:16.418Z,9.90
2023-04-16T08:34:44.327Z,9.60
2023-04-16T08:37:12.093Z,17.40
2023-04-16T08:39:40.025Z,7.80
2023-04-16T08:42:13.684Z,6.93
2023-04-16T08:44:44.630Z,3.95
2023-04-16T08:47:12.947Z,13.23
2023-04-16T08:49:45.262Z,8.95
2023-04-16T08:52:19.952Z,6.35
2023-04-16T08:54:58.475Z,5.18
2023-04-16T08:57:31.692Z,6.95
2023-04-16T08:59:59.784Z,11.68
2023-04-16T09:02:28.192Z,8.65
2023-04-16T09:04:56.811Z,7.43
2023-04-16T09:07:24.801Z,12.50
2023-04-16T09:09:53.628Z,7.80
2023-04-16T09:12:24.186Z,7.72
2023-04-16T09:14:51.998Z,8.82
2023-04-16T09:17:19.885Z,9.70
2023-04-16T09:19:47.935Z,3.80
2023-04-16T09:22:17.290Z,6.70
2023-04-16T09:24:45.045Z,7.70
2023-04-16T09:27:13.304Z,5.47
2023-04-16T09:29:41.800Z,5.55
2023-04-16T09:32:11.737Z,5.10
2023-04-16T09:34:55.743Z,4.05
2023-04-16T09:37:24.064Z,10.43
2023-04-16T09:39:57.661Z,6.97
2023-04-16T09:42:27.544Z,4.95
2023-04-16T09:44:58.658Z,8.27
2023-04-16T09:47:40.200Z,16.35
2023-04-16T09:50:11.260Z,8.57
2023-04-16T09:52:40.484Z,6.13
2023-04-16T09:55:10.859Z,5.28
2023-04-16T09:57:44.737Z,5.22
2023-04-16T10:00:13.154Z,8.20
2023-04-16T10:02:42.637Z,4.93
2023-04-16T10:05:16.874Z,13.73
2023-04-16T10:07:44.999Z,10.77
2023-04-16T10:10:12.775Z,3.10
2023-04-16T10:12:40.789Z,10.23
2023-04-16T10:15:08.894Z,5.95
2023-04-16T10:17:37.316Z,2.88
2023-04-16T10:20:09.385Z,5.60
2023-04-16T10:22:39.727Z,3.20
2023-04-16T10:25:08.634Z,8.10
2023-04-16T10:27:37.415Z,4.47
2023-04-16T10:30:07.236Z,7.50
2023-04-16T10:32:35.771Z,10.23
2023-04-16T10:35:03.935Z,3.92
2023-04-16T10:37:35.512Z,5.60
2023-04-16T10:40:25.313Z,5.43
2023-04-16T10:42:57.949Z,4.78
2023-04-16T10:45:35.209Z,6.50
2023-04-16T10:48:10.133Z,5.72
2023-04-16T10:50:38.461Z,10.70
2023-04-16T10:53:27.317Z,2.05
2023-04-16T10:56:08.566Z,5.63
2023-04-16T10:58:47.997Z,5.80
2023-04-16T11:01:16.941Z,3.70
2023-04-16T11:03:47.542Z,4.72
2023-04-16T11:06:26.805Z,5.22
2023-04-16T11:09:06.304Z,10.82
2023-04-16T11:11:39.697Z,8.70
2023-04-16T11:14:08.416Z,8.00
2023-04-16T11:16:36.310Z,7.38
2023-04-16T11:19:04.115Z,12.07
2023-04-16T11:21:32.699Z,5.05
2023-04-16T11:24:00.471Z,10.88
2023-04-16T11:26:30.814Z,7.13
2023-04-16T11:29:00.345Z,6.95
2023-04-16T11:31:28.302Z,4.10
2023-04-16T11:33:56.972Z,3.05
2023-04-16T11:36:26.956Z,8.18
2023-04-16T11:39:02.200Z,5.97
2023-04-16T11:41:30.041Z,4.55
2023-04-16T11:43:58.005Z,3.90
2023-04-16T11:46:38.881Z,6.05
2023-04-16T11:49:06.754Z,4.60
2023-04-16T11:51:42.799Z,4.10
2023-04-16T11:54:12.190Z,8.00
2023-04-16T11:56:46.977Z,8.10
2023-04-16T11:59:17.643Z,3.47
2023-04-16T12:01:55.829Z,18.58
2023-04-16T12:04:26.361Z,5.55
2023-04-16T12:07:14.322Z,10.32
2023-04-16T12:09:44.294Z,5.43
2023-04-16T12:12:26.615Z,5.40
2023-04-16T12:14:56.889Z,6.72
2023-04-16T12:17:24.963Z,5.60
2023-04-16T12:20:00.877Z,3.17
2023-04-16T12:22:28.646Z,9.82
2023-04-16T12:24:59.906Z,8.48
2023-04-16T12:27:53.366Z,5.03
2023-04-16T12:30:23.194Z,6.43
2023-04-16T12:32:52.743Z,6.80
2023-04-16T12:35:33.944Z,8.30
2023-04-16T12:38:01.747Z,7.82
2023-04-16T12:40:29.526Z,5.30
2023-04-16T12:42:57.685Z,6.35
2023-04-16T12:45:25.765Z,4.53
2023-04-16T12:47:53.644Z,3.63
2023-04-16T12:50:21.833Z,7.70
2023-04-16T12:52:49.655Z,4.38
2023-04-16T12:55:20.838Z,3.30
2023-04-16T12:57:49.503Z,5.47
2023-04-16T13:00:22.661Z,6.28
2023-04-16T13:05:19.440Z,8.27
2023-04-16T13:07:47.407Z,7.22
2023-04-16T13:10:15.257Z,7.78
2023-04-16T13:12:45.473Z,6.75
2023-04-16T13:15:13.274Z,8.98
2023-04-16T13:17:41.164Z,5.13
2023-04-16T13:20:09.546Z,5.50
2023-04-16T13:22:41.469Z,13.32
2023-04-16T13:25:09.991Z,6.47
2023-04-16T13:27:40.483Z,9.60
2023-04-16T20:37:48.551Z,22.02
2023-04-16T20:40:16.556Z,32.45
2023-04-16T20:42:46.920Z,29.20
2023-04-16T20:45:14.724Z,23.60
2023-04-16T20:47:43.560Z,25.90
2023-04-16T20:50:12.219Z,23.92
2023-04-16T20:52:40.026Z,24.05
2023-04-16T20:55:08.694Z,18.55
2023-04-16T20:57:42.174Z,22.95
2023-04-16T21:00:11.674Z,24.48
2023-04-16T21:02:39.706Z,16.45
2023-04-16T21:05:16.715Z,20.35
2023-04-16T21:07:44.498Z,15.23
2023-04-16T21:10:12.251Z,28.38
2023-04-16T21:12:39.991Z,22.15
2023-04-16T21:15:08.112Z,20.17
2023-04-16T21:17:38.708Z,26.90
2023-04-16T21:20:10.756Z,25.13
2023-04-16T21:22:38.490Z,18.20
2023-04-16T21:25:07.005Z,26.27
2023-04-16T21:27:34.643Z,22.63
2023-04-16T21:30:02.466Z,17.10
2023-04-16T21:32:31.540Z,19.42
2023-04-16T21:34:59.683Z,21.95
2023-04-16T21:37:27.401Z,18.35
2023-04-16T21:39:55.101Z,26.80
2023-04-16T21:42:22.787Z,28.10
2023-04-16T21:44:50.574Z,32.03
2023-04-16T21:47:18.712Z,25.05
2023-04-16T21:49:46.574Z,24.63
2023-04-16T21:52:14.279Z,27.63
2023-04-16T21:54:42.108Z,23.98
2023-04-16T21:57:10.108Z,23.23
2023-04-16T21:59:38.521Z,40.97
2023-04-16T22:02:06.582Z,27.60
2023-04-16T22:04:40.268Z,35.63
2023-04-16T22:07:11.847Z,22.55
2023-04-16T22:09:40.886Z,18.98
2023-04-16T22:12:11.510Z,24.55
2023-04-16T22:14:46.227Z,29.92
2023-04-16T22:17:17.273Z,22.40
2023-04-16T22:19:45.243Z,25.10
2023-04-16T22:22:13.562Z,32.38
2023-04-16T22:24:41.339Z,24.45
2023-04-16T22:27:09.157Z,28.13
2023-04-16T22:29:38.122Z,33.55
2023-04-16T22:32:06.187Z,40.25
2023-04-16T22:34:34.204Z,27.45
2023-04-16T22:37:03.192Z,20.60
2023-04-16T22:39:31.772Z,24.13
2023-04-16T22:41:59.683Z,30.83
2023-04-16T22:44:27.438Z,25.15
2023-04-16T22:46:55.254Z,31.42
2023-04-16T22:49:23.068Z,35.28
2023-04-16T22:51:50.880Z,22.67
2023-04-16T22:54:18.596Z,44.17
2023-04-16T22:56:46.975Z,23.23
2023-04-16T22:59:14.726Z,32.15
2023-04-16T23:01:42.941Z,45.92
2023-04-16T23:04:11.165Z,26.90
2023-04-16T23:06:40.650Z,20.25
2023-04-16T23:09:09.009Z,22.55
2023-04-16T23:11:36.945Z,31.45
2023-04-16T23:14:05.147Z,24.15
2023-04-16T23:16:32.900Z,28.70
2023-04-16T23:19:00.575Z,30.20
2023-04-16T23:21:28.255Z,23.77
2023-04-16T23:23:57.241Z,31.15
2023-04-16T23:26:25.016Z,37.67
2023-04-16T23:28:52.812Z,29.13
2023-04-16T23:31:20.740Z,41.88
2023-04-16T23:33:48.488Z,30.65
2023-04-16T23:36:16.551Z,30.10
2023-04-16T23:38:44.246Z,31.05
2023-04-16T23:41:12.082Z,27.75
2023-04-16T23:43:40.848Z,28.75
2023-04-16T23:46:08.688Z,32.28
2023-04-16T23:48:36.589Z,27.48
2023-04-16T23:51:04.563Z,28.00
2023-04-16T23:53:32.348Z,29.55
2023-04-16T23:56:00.322Z,24.45
2023-04-16T23:58:28.143Z,32.83
